Terminal Aerodrome Forecast
Issued by NWS

Home | Current Version | Previous Version | Text Only | Print | Product List | Glossary On
Versions: 1 2 3 4 5 6 7 8 9 10 11 12 13 14 15 16 17 18 19 20
000
FTUS43 KLSX 251700
TAFCPS
TAF
KCPS 251731Z 2518/2618 34005KT P6SM FEW020 SCT150 BKN250
     FM252100 03006KT P6SM SCT150 BKN250
     FM260100 01012KT 5SM -SHRA VCTS SCT040CB BKN080
     FM260700 35012KT 3SM -RA BR SCT007 OVC015
     FM261300 34012KT P6SM BKN080
     FM261500 33012KT P6SM SKC=

USA.gov is the U.S. government's official web portal to all federal, state and local government web resources and services.